^^
Saratoga-Weather Station Historical Data
Daily Summary for September 12, 2020 Units:  English    Metric   Both
Daily Weekly Monthly Yearly Custom
  High: Low: Average:
Temperature: 52.5 °F 43.5 °F 48.4 °F
Dew Point: 47.8 °F 41.2 °F 45.1 °F
Humidity: 93% 80% 89%
Wind Speed: 8.1mph 0mph 1.9mph
Wind Gust: 11mph - -
Wind- - West
Pressure: 30.2 in 30 in -
Precipitation: 0.01 in    
Historical Graphs
 
 
Tabular Data for September 12, 2020
Time Temperature Dew Point Pressure Wind Wind Speed Wind Gust Humidity Rainfall Rate (Hourly) solar
00:01 48.6 °F 44.6 °F 30.2 in West 2 mph 6 mph 86% 0 in 0 W/m2
00:06 48.6 °F 44.6 °F 30.2 in WSW 2.9 mph 5 mph 86% 0 in 0 W/m2
00:11 48.6 °F 44.6 °F 30.2 in West 2.9 mph 4 mph 86% 0 in 0 W/m2
00:16 48.4 °F 44.4 °F 30.2 in West 2 mph 5 mph 86% 0 in 0 W/m2
00:21 48.4 °F 44.4 °F 30.2 in West 2.9 mph 5 mph 86% 0 in 0 W/m2
00:26 48.2 °F 44.2 °F 30.2 in West 2.9 mph 4 mph 86% 0 in 0 W/m2
00:31 48 °F 44.1 °F 30.2 in West 2.9 mph 4 mph 86% 0 in 0 W/m2
00:36 47.8 °F 44.2 °F 30.2 in WSW 4 mph 4 mph 87% 0 in 0 W/m2
00:41 47.7 °F 44.1 °F 30.2 in West 2.9 mph 5 mph 87% 0 in 0 W/m2
00:46 47.7 °F 44.1 °F 30.2 in West 2 mph 4 mph 87% 0 in 0 W/m2
00:51 47.7 °F 44.2 °F 30.2 in West 2.9 mph 5 mph 88% 0 in 0 W/m2
00:56 47.5 °F 44.1 °F 30.2 in West 6 mph 7 mph 88% 0 in 0 W/m2
01:01 47.5 °F 44.1 °F 30.2 in West 2 mph 6 mph 88% 0 in 0 W/m2
01:06 47.1 °F 43.7 °F 30.2 in West 6 mph 9 mph 88% 0 in 0 W/m2
01:11 47.1 °F 43.7 °F 30.2 in WSW 2.9 mph 6 mph 88% 0 in 0 W/m2
01:16 46.9 °F 43.5 °F 30.2 in West 2 mph 7 mph 88% 0 in 0 W/m2
01:21 46.9 °F 43.5 °F 30.2 in WSW 2 mph 4 mph 88% 0 in 0 W/m2
01:26 46.8 °F 43.3 °F 30.2 in West 4 mph 6 mph 88% 0 in 0 W/m2
01:32 46.6 °F 43.2 °F 30.2 in West 0.9 mph 4 mph 88% 0 in 0 W/m2
01:37 46.4 °F 43.3 °F 30.2 in West 2 mph 3 mph 89% 0 in 0 W/m2
01:42 46.2 °F 43.2 °F 30.2 in West 2 mph 4 mph 89% 0 in 0 W/m2
01:47 46 °F 43 °F 30.2 in West 2 mph 2 mph 89% 0 in 0 W/m2
01:52 45.9 °F 42.8 °F 30.2 in West 2 mph 3 mph 89% 0 in 0 W/m2
01:57 45.5 °F 42.8 °F 30.2 in WSW 2 mph 3 mph 90% 0 in 0 W/m2
02:02 45.3 °F 42.6 °F 30.2 in Calm   2 mph 90% 0 in 0 W/m2
02:07 45.1 °F 42.4 °F 30.2 in West 0.9 mph 2 mph 90% 0 in 0 W/m2
02:12 45.1 °F 42.4 °F 30.2 in West 0.9 mph 3 mph 90% 0 in 0 W/m2
02:17 45.1 °F 42.6 °F 30.2 in West 2 mph 4 mph 91% 0 in 0 W/m2
02:22 45.1 °F 42.6 °F 30.2 in West 0.9 mph 3 mph 91% 0 in 0 W/m2
02:27 45.1 °F 42.6 °F 30.2 in West 0.9 mph 3 mph 91% 0 in 0 W/m2
02:32 45.1 °F 42.4 °F 30.2 in West 0.9 mph 3 mph 90% 0 in 0 W/m2
02:37 45.1 °F 42.4 °F 30.2 in West 0.9 mph 2 mph 90% 0 in 0 W/m2
02:42 45 °F 42.3 °F 30.2 in WNW 0.9 mph 4 mph 90% 0 in 0 W/m2
02:47 44.6 °F 41.9 °F 30.2 in West 0.9 mph 2 mph 90% 0 in 0 W/m2
02:52 44.4 °F 41.7 °F 30.2 in West 0.9 mph 2 mph 90% 0 in 0 W/m2
02:57 44.1 °F 41.5 °F 30.2 in West 0.9 mph 2 mph 91% 0 in 0 W/m2
03:02 43.9 °F 41.4 °F 30.2 in West 0.9 mph 3 mph 91% 0 in 0 W/m2
03:07 43.7 °F 41.2 °F 30.2 in West 2 mph 2 mph 91% 0 in 0 W/m2
03:12 43.5 °F 41.4 °F 30.2 in West 2 mph 3 mph 92% 0 in 0 W/m2
03:17 43.7 °F 41.5 °F 30.2 in West 2.9 mph 6 mph 92% 0 in 0 W/m2
03:22 44.1 °F 41.9 °F 30.2 in West 2.9 mph 4 mph 92% 0 in 0 W/m2
03:27 44.2 °F 42.1 °F 30.2 in West 2.9 mph 4 mph 92% 0 in 0 W/m2
03:32 44.4 °F 42.3 °F 30.2 in West 2 mph 7 mph 92% 0 in 0 W/m2
03:37 44.6 °F 42.1 °F 30.2 in West 2.9 mph 7 mph 91% 0 in 0 W/m2
03:42 44.6 °F 42.1 °F 30.2 in West 2.9 mph 4 mph 91% 0 in 0 W/m2
03:47 44.6 °F 42.1 °F 30.2 in WNW 2.9 mph 7 mph 91% 0 in 0 W/m2
03:52 44.8 °F 42.3 °F 30.2 in West 2.9 mph 6 mph 91% 0 in 0 W/m2
03:57 44.8 °F 42.1 °F 30.2 in West 4 mph 6 mph 90% 0 in 0 W/m2
04:02 45 °F 42.3 °F 30.2 in WNW 2 mph 4 mph 90% 0 in 0 W/m2
04:07 45 °F 42.3 °F 30.2 in West 2.9 mph 4 mph 90% 0 in 0 W/m2
04:12 45.1 °F 42.4 °F 30.2 in West 2.9 mph 4 mph 90% 0 in 0 W/m2
04:17 45.3 °F 42.6 °F 30.2 in West 2 mph 3 mph 90% 0 in 0 W/m2
04:22 45.9 °F 43.2 °F 30.2 in WSW 4 mph 6 mph 90% 0 in 0 W/m2
04:27 46 °F 43.3 °F 30.2 in WNW 0.9 mph 3 mph 90% 0 in 0 W/m2
04:32 46 °F 43.3 °F 30.2 in NW 0.9 mph 2 mph 90% 0 in 0 W/m2
04:37 46.2 °F 43.2 °F 30.2 in Calm   2 mph 89% 0 in 0 W/m2
04:42 46.2 °F 43.2 °F 30.2 in NW 0.9 mph 1 mph 89% 0 in 0 W/m2
04:47 46 °F 43 °F 30.2 in NW 0.9 mph 2 mph 89% 0 in 0 W/m2
04:52 46 °F 43 °F 30.2 in Calm     89% 0 in 0 W/m2
04:57 46 °F 43 °F 30.2 in NW 0.9 mph 3 mph 89% 0 in 0 W/m2
05:02 46 °F 43.3 °F 30.2 in Calm   1 mph 90% 0 in 0 W/m2
05:07 46 °F 43.3 °F 30.2 in Calm   3 mph 90% 0 in 0 W/m2
05:12 46 °F 43.3 °F 30.2 in West 0.9 mph 3 mph 90% 0 in 0 W/m2
05:17 46 °F 43.3 °F 30.2 in West 2 mph 4 mph 90% 0 in 0 W/m2
05:22 46 °F 43.3 °F 30.2 in West 0.9 mph 3 mph 90% 0 in 0 W/m2
05:27 46.2 °F 43.5 °F 30.2 in NW 2 mph 4 mph 90% 0 in 0 W/m2
05:32 46.2 °F 43.5 °F 30.2 in WSW 2 mph 3 mph 90% 0 in 0 W/m2
05:37 46.4 °F 43.7 °F 30.2 in WNW 4 mph 5 mph 90% 0 in 0 W/m2
05:42 46.6 °F 43.9 °F 30.2 in West 0.9 mph 2 mph 90% 0 in 0 W/m2
05:47 46.6 °F 43.9 °F 30.2 in Calm   2 mph 90% 0 in 0 W/m2
05:52 46.6 °F 43.9 °F 30.2 in NW 0.9 mph 2 mph 90% 0 in 0 W/m2
05:57 46.4 °F 43.7 °F 30.2 in WNW 0.9 mph 4 mph 90% 0 in 0 W/m2
06:02 46.4 °F 43.7 °F 30.2 in West 0.9 mph 4 mph 90% 0 in 0 W/m2
06:07 46.4 °F 43.7 °F 30.2 in Calm   1 mph 90% 0 in 0 W/m2
06:12 46.4 °F 43.7 °F 30.2 in Calm   1 mph 90% 0 in 0 W/m2
06:17 46.4 °F 43.7 °F 30.2 in WNW 0.9 mph 2 mph 90% 0 in 0 W/m2
06:22 46.2 °F 43.5 °F 30.2 in WNW 0.9 mph 2 mph 90% 0 in 0 W/m2
06:27 46.2 °F 43.5 °F 30.2 in WNW 0.9 mph 2 mph 90% 0 in 0 W/m2
06:32 46.2 °F 43.7 °F 30.2 in WNW 2 mph 3 mph 91% 0 in 0 W/m2
06:37 46.2 °F 43.7 °F 30.2 in West 2 mph 3 mph 91% 0 in 0 W/m2
06:42 46 °F 43.5 °F 30.2 in West 0.9 mph 3 mph 91% 0 in 0 W/m2
06:47 46 °F 43.5 °F 30.2 in West 2 mph 3 mph 91% 0 in 0 W/m2
06:52 46 °F 43.5 °F 30.2 in WSW 0.9 mph 2 mph 91% 0 in 0 W/m2
06:57 46 °F 43.5 °F 30.2 in West 2 mph 4 mph 91% 0 in 0 W/m2
07:02 46 °F 43.5 °F 30.2 in WSW 0.9 mph 2 mph 91% 0 in 0 W/m2
07:07 46 °F 43.5 °F 30.2 in WSW 2.9 mph 3 mph 91% 0 in 0 W/m2
07:12 46 °F 43.5 °F 30.2 in WSW 0.9 mph 2 mph 91% 0 in 0 W/m2
07:17 46 °F 43.5 °F 30.2 in WNW 2 mph 3 mph 91% 0 in 0 W/m2
07:22 46 °F 43.5 °F 30.2 in Calm   1 mph 91% 0 in 0 W/m2
07:27 46 °F 43.5 °F 30.2 in West 0.9 mph 2 mph 91% 0 in 0 W/m2
07:32 46.2 °F 44.1 °F 30.2 in Calm   2 mph 92% 0 in 0 W/m2
07:37 46.2 °F 43.7 °F 30.2 in Calm   1 mph 91% 0 in 0 W/m2
07:42 46.2 °F 43.7 °F 30.2 in WNW 2 mph 2 mph 91% 0 in 0 W/m2
07:47 46.2 °F 43.7 °F 30.2 in WNW 0.9 mph 2 mph 91% 0 in 0 W/m2
07:52 46.2 °F 43.7 °F 30.2 in Calm   2 mph 91% 0 in 0 W/m2
07:57 46.2 °F 43.7 °F 30.2 in ENE 0.9 mph 2 mph 91% 0 in 0 W/m2
08:02 46.2 °F 43.7 °F 30.2 in Calm   3 mph 91% 0 in 5 W/m2
08:07 46.2 °F 43.7 °F 30.2 in NNW 2 mph 2 mph 91% 0 in 7 W/m2
08:12 46.2 °F 43.7 °F 30.2 in NW 0.9 mph 3 mph 91% 0 in 11 W/m2
08:17 46.2 °F 43.7 °F 30.2 in Calm     91% 0 in 12 W/m2
08:22 46.4 °F 44.2 °F 30.2 in Calm   3 mph 92% 0 in 16 W/m2
08:27 46.4 °F 44.2 °F 30.2 in Calm     92% 0 in 19 W/m2
08:32 46.4 °F 44.2 °F 30.2 in NW 2 mph 2 mph 92% 0 in 23 W/m2
08:37 46.4 °F 43.9 °F 30.2 in Calm   2 mph 91% 0 in 26 W/m2
08:42 46.4 °F 43.9 °F 30.2 in West 4 mph 4 mph 91% 0 in 26 W/m2
08:47 46.2 °F 43.7 °F 30.2 in SW 2 mph 4 mph 91% 0 in 30 W/m2
08:52 46.2 °F 43.7 °F 30.2 in WNW 2 mph 2 mph 91% 0 in 37 W/m2
08:57 46 °F 43.9 °F 30.2 in West 0.9 mph 4 mph 92% 0 in 32 W/m2
09:02 46 °F 43.9 °F 30.2 in Calm   3 mph 92% 0 in 33 W/m2
09:07 46.2 °F 44.1 °F 30.2 in Calm   4 mph 92% 0 in 35 W/m2
09:12 46.2 °F 44.1 °F 30.2 in WNW 0.9 mph 5 mph 92% 0 in 39 W/m2
09:17 46.2 °F 44.1 °F 30.2 in WSW 2 mph 3 mph 92% 0 in 39 W/m2
09:22 46.6 °F 44.4 °F 30.2 in West 0.9 mph 3 mph 92% 0 in 47 W/m2
09:27 46.6 °F 44.4 °F 30.2 in NW 2 mph 2 mph 92% 0 in 54 W/m2
09:32 46.8 °F 44.6 °F 30.2 in Calm   4 mph 92% 0 in 49 W/m2
09:37 46.9 °F 44.8 °F 30.2 in WSW 0.9 mph 4 mph 92% 0 in 69 W/m2
09:42 46.9 °F 44.8 °F 30.2 in West 2.9 mph 3 mph 92% 0 in 81 W/m2
09:47 47.1 °F 45 °F 30.2 in WSW 4 mph 4 mph 92% 0 in 104 W/m2
09:52 47.3 °F 44.8 °F 30.2 in WNW 2 mph 4 mph 91% 0 in 113 W/m2
09:57 47.5 °F 45 °F 30.2 in WNW 4 mph 4 mph 91% 0 in 120 W/m2
10:02 47.7 °F 45.1 °F 30.2 in WNW 0.9 mph 3 mph 91% 0 in 127 W/m2
10:07 47.8 °F 45.3 °F 30.2 in WNW 2.9 mph 6 mph 91% 0 in 146 W/m2
10:12 48 °F 45.1 °F 30.2 in WNW 2 mph 4 mph 90% 0 in 158 W/m2
10:17 48.4 °F 45.5 °F 30.2 in NW 2.9 mph 6 mph 90% 0 in 151 W/m2
10:22 48.4 °F 45.5 °F 30.2 in NW 2.9 mph 6 mph 90% 0 in 174 W/m2
10:27 48.6 °F 45.5 °F 30.2 in West 2 mph 4 mph 89% 0 in 204 W/m2
10:32 48.7 °F 45.9 °F 30.2 in NW 0.9 mph 2 mph 90% 0 in 220 W/m2
10:38 48.9 °F 45.9 °F 30.2 in NW 2 mph 6 mph 89% 0 in 207 W/m2
10:43 49.3 °F 46.2 °F 30.2 in WSW 2.9 mph 4 mph 89% 0 in 193 W/m2
10:48 49.3 °F 45.9 °F 30.2 in WNW 0.9 mph 3 mph 88% 0 in 181 W/m2
10:53 49.3 °F 45.9 °F 30.2 in Calm   4 mph 88% 0 in 204 W/m2
10:58 49.5 °F 46 °F 30.2 in Calm   3 mph 88% 0 in 195 W/m2
11:03 49.6 °F 46.2 °F 30.2 in WNW 2 mph 5 mph 88% 0 in 167 W/m2
11:08 49.8 °F 46.4 °F 30.2 in West 2 mph 6 mph 88% 0 in 155 W/m2
11:13 50 °F 46.2 °F 30.2 in WNW 0.9 mph 7 mph 87% 0 in 128 W/m2
11:18 50.2 °F 46.4 °F 30.2 in WNW 2.9 mph 5 mph 87% 0 in 183 W/m2
11:23 50.4 °F 46.4 °F 30.2 in West 2 mph 8 mph 86% 0 in 299 W/m2
11:28 50.5 °F 46.8 °F 30.2 in WNW 4.9 mph 7 mph 87% 0 in 294 W/m2
11:33 50.9 °F 46.9 °F 30.2 in NNW 4 mph 11 mph 86% 0 in 374 W/m2
11:38 51.1 °F 46.8 °F 30.2 in West 6 mph 8 mph 85% 0 in 336 W/m2
11:43 51.3 °F 46.9 °F 30.2 in WNW 2.9 mph 5 mph 85% 0 in 230 W/m2
11:48 51.3 °F 46.9 °F 30.2 in WNW 6.9 mph 9 mph 85% 0 in 299 W/m2
11:53 51.3 °F 46.6 °F 30.2 in WNW 4 mph 10 mph 84% 0 in 186 W/m2
11:58 51.1 °F 46.8 °F 30.2 in West 2.9 mph 7 mph 85% 0 in 153 W/m2
12:03 51.1 °F 46.8 °F 30.2 in WNW 2 mph 10 mph 85% 0 in 185 W/m2
12:08 51.3 °F 46.9 °F 30.2 in WSW 4 mph 9 mph 85% 0 in 265 W/m2
12:13 51.4 °F 46.8 °F 30.1 in WNW 4.9 mph 10 mph 84% 0 in 214 W/m2
12:18 51.6 °F 46.6 °F 30.1 in West 4 mph 7 mph 83% 0 in 323 W/m2
12:23 52 °F 46.4 °F 30.1 in SW 4 mph 4 mph 81% 0 in 329 W/m2
12:28 52.2 °F 46.6 °F 30.1 in WSW 6 mph 8 mph 81% 0 in 188 W/m2
12:33 52.2 °F 46.6 °F 30.1 in West 8.1 mph 8 mph 81% 0 in 113 W/m2
12:38 51.8 °F 45.9 °F 30.1 in West 2 mph 11 mph 80% 0 in 111 W/m2
12:43 51.4 °F 46.2 °F 30.1 in West 6 mph 7 mph 82% 0 in 109 W/m2
12:48 51.4 °F 45.9 °F 30.1 in West 4 mph 7 mph 81% 0 in 109 W/m2
12:53 51.4 °F 46.2 °F 30.1 in WSW 0.9 mph 4 mph 82% 0 in 120 W/m2
12:58 51.4 °F 46.4 °F 30.1 in WNW 2.9 mph 7 mph 83% 0 in 132 W/m2
13:03 51.4 °F 46.4 °F 30.1 in WNW 4 mph 5 mph 83% 0 in 174 W/m2
13:08 51.4 °F 46.8 °F 30.1 in West 6 mph 7 mph 84% 0 in 218 W/m2
13:13 51.6 °F 46.6 °F 30.1 in NW 4 mph 9 mph 83% 0 in 116 W/m2
13:18 51.4 °F 46.4 °F 30.1 in West 4 mph 11 mph 83% 0 in 74 W/m2
13:23 51.3 °F 46.2 °F 30.1 in WNW 4.9 mph 9 mph 83% 0 in 70 W/m2
13:28 50.9 °F 46.2 °F 30.1 in SW 0.9 mph 6 mph 84% 0 in 56 W/m2
13:34 50.5 °F 46.2 °F 30.1 in SW 4 mph 9 mph 85% 0 in 70 W/m2
13:39 50.2 °F 46.2 °F 30.1 in WNW 2.9 mph 6 mph 86% 0 in 77 W/m2
13:44 49.8 °F 46 °F 30.1 in WSW 6.9 mph 9 mph 87% 0 in 69 W/m2
13:49 49.8 °F 46 °F 30.1 in WNW 4 mph 8 mph 87% 0 in 81 W/m2
13:54 49.8 °F 46 °F 30.1 in WNW 8.1 mph 9 mph 87% 0 in 83 W/m2
13:59 49.8 °F 46.4 °F 30.1 in NW 2.9 mph 8 mph 88% 0 in 100 W/m2
14:04 50 °F 46.6 °F 30.1 in West 8.1 mph 9 mph 88% 0 in 109 W/m2
14:09 50.2 °F 46.4 °F 30.1 in West 2.9 mph 7 mph 87% 0 in 113 W/m2
14:14 50.4 °F 46.6 °F 30.1 in NW 4.9 mph 9 mph 87% 0 in 135 W/m2
14:19 50.4 °F 46.6 °F 30.1 in NW 2.9 mph 4 mph 87% 0 in 188 W/m2
14:24 50.5 °F 47.1 °F 30.1 in West 6 mph 9 mph 88% 0 in 200 W/m2
14:29 50.5 °F 47.5 °F 30.1 in WNW 2.9 mph 4 mph 89% 0 in 204 W/m2
14:34 50.7 °F 47.3 °F 30.1 in WNW 0.9 mph 9 mph 88% 0 in 206 W/m2
14:39 50.7 °F 47.3 °F 30.1 in West 6.9 mph 7 mph 88% 0 in 199 W/m2
14:44 50.9 °F 47.1 °F 30.1 in West 2.9 mph 3 mph 87% 0 in 225 W/m2
14:49 51.3 °F 47.5 °F 30.1 in WSW 2.9 mph 3 mph 87% 0 in 234 W/m2
14:54 51.4 °F 47.5 °F 30.1 in WSW 4.9 mph 6 mph 86% 0 in 181 W/m2
14:59 51.6 °F 47.5 °F 30.1 in WNW 4 mph 5 mph 86% 0 in 197 W/m2
15:04 52 °F 47.8 °F 30.1 in West 0.9 mph 3 mph 86% 0 in 195 W/m2
15:09 52.2 °F 47.8 °F 30.1 in West 2.9 mph 5 mph 85% 0 in 202 W/m2
15:14 52.2 °F 47.1 °F 30.1 in WNW 2 mph 7 mph 83% 0 in 218 W/m2
15:19 52.2 °F 46.8 °F 30.1 in WNW 2.9 mph 7 mph 82% 0 in 327 W/m2
15:24 52.3 °F 46.9 °F 30.1 in WNW 2 mph 6 mph 82% 0 in 290 W/m2
15:29 52.5 °F 47.1 °F 30.1 in WSW 2.9 mph 4 mph 82% 0 in 199 W/m2
15:34 52.5 °F 46.6 °F 30.1 in WSW 0.9 mph 9 mph 80% 0 in 130 W/m2
15:39 52.5 °F 46.6 °F 30.1 in NW 2.9 mph 7 mph 80% 0 in 134 W/m2
15:44 52.3 °F 46.8 °F 30.1 in West 0.9 mph 9 mph 81% 0 in 148 W/m2
15:49 52.3 °F 47.3 °F 30.1 in WSW 2 mph 3 mph 83% 0 in 141 W/m2
15:54 52.3 °F 47.3 °F 30.1 in WNW 0.9 mph 5 mph 83% 0.01 in 134 W/m2
15:59 52.2 °F 47.1 °F 30.1 in WNW 2 mph 7 mph 83% 0.01 in 165 W/m2
16:04 52 °F 47.3 °F 30.1 in West 2 mph 4 mph 84% 0.01 in 155 W/m2
16:09 51.8 °F 47.5 °F 30.1 in NW 2.9 mph 4 mph 85% 0.01 in 135 W/m2
16:14 51.8 °F 47.7 °F 30.1 in Calm   4 mph 86% 0.01 in 148 W/m2
16:19 51.8 °F 47.5 °F 30.1 in West 2 mph 4 mph 85% 0.01 in 114 W/m2
16:24 52 °F 47.7 °F 30.1 in NW 2 mph 2 mph 85% 0.01 in 83 W/m2
16:29 52 °F 47.7 °F 30.1 in WNW 0.9 mph 3 mph 85% 0.01 in 84 W/m2
16:34 52 °F 47.7 °F 30.1 in WSW 2 mph 3 mph 85% 0.01 in 86 W/m2
16:39 51.8 °F 47.5 °F 30.1 in West 2 mph 2 mph 85% 0.01 in 86 W/m2
16:44 51.8 °F 47.5 °F 30.1 in West 2.9 mph 5 mph 85% 0.01 in 83 W/m2
16:49 51.6 °F 47.3 °F 30.1 in West 0.9 mph 6 mph 85% 0.01 in 70 W/m2
16:54 51.4 °F 47.1 °F 30.1 in SW 4 mph 6 mph 85% 0 in 63 W/m2
16:59 51.4 °F 47.1 °F 30.1 in NW 4 mph 5 mph 85% 0 in 72 W/m2
17:04 51.4 °F 47.5 °F 30.1 in NW 0.9 mph 2 mph 86% 0 in 79 W/m2
17:09 51.4 °F 47.7 °F 30.1 in WNW 4.9 mph 5 mph 87% 0 in 74 W/m2
17:14 51.3 °F 47.5 °F 30.1 in WSW 2.9 mph 4 mph 87% 0 in 72 W/m2
17:19 51.3 °F 47.3 °F 30.1 in West 5 mph 5 mph 86% 0 in 67 W/m2
17:24 51.1 °F 47.3 °F 30.1 in WNW 2 mph 5 mph 87% 0 in 60 W/m2
17:29 50.9 °F 47.1 °F 30.1 in West 2.9 mph 4 mph 87% 0 in 62 W/m2
17:34 50.7 °F 47.3 °F 30.1 in WNW 2 mph 4 mph 88% 0 in 65 W/m2
17:39 50.5 °F 46.8 °F 30.1 in WNW 2 mph 6 mph 87% 0 in 67 W/m2
17:44 50.5 °F 46.8 °F 30.1 in WNW 2.9 mph 4 mph 87% 0 in 65 W/m2
17:49 50.5 °F 46.8 °F 30.1 in West 2 mph 5 mph 87% 0 in 62 W/m2
17:54 50.5 °F 46.8 °F 30.1 in WNW 2 mph 4 mph 87% 0 in 54 W/m2
17:59 50.5 °F 46.8 °F 30.1 in West 2.9 mph 5 mph 87% 0 in 51 W/m2
18:04 50.4 °F 46.6 °F 30.1 in West 2 mph 7 mph 87% 0 in 42 W/m2
18:09 50.4 °F 46.6 °F 30.1 in WNW 2.9 mph 3 mph 87% 0 in 33 W/m2
18:14 50.2 °F 46.4 °F 30.1 in WNW 2 mph 7 mph 87% 0 in 35 W/m2
18:19 50.2 °F 46.4 °F 30.1 in West 2.9 mph 3 mph 87% 0 in 30 W/m2
18:24 50 °F 46.2 °F 30.1 in West 2.9 mph 3 mph 87% 0 in 30 W/m2
18:29 49.8 °F 46 °F 30.1 in NW 0.9 mph 3 mph 87% 0 in 21 W/m2
18:34 49.8 °F 46.4 °F 30.1 in West 0.9 mph 4 mph 88% 0 in 14 W/m2
18:39 49.6 °F 46.2 °F 30.1 in Calm   2 mph 88% 0 in 12 W/m2
18:44 49.6 °F 46.2 °F 30.1 in WNW 0.9 mph 3 mph 88% 0 in 9 W/m2
18:49 49.5 °F 46.4 °F 30.1 in Calm   2 mph 89% 0 in 5 W/m2
18:54 49.3 °F 46.2 °F 30.1 in West 0.9 mph 3 mph 89% 0 in 0 W/m2
18:59 49.3 °F 46.2 °F 30.1 in West 0.9 mph 4 mph 89% 0 in 0 W/m2
19:04 49.3 °F 46.4 °F 30.1 in WNW 2.9 mph 4 mph 90% 0 in 0 W/m2
19:09 49.3 °F 46.4 °F 30.1 in West 2 mph 4 mph 90% 0 in 0 W/m2
19:14 49.3 °F 46.2 °F 30.1 in WNW 0.9 mph 3 mph 89% 0 in 0 W/m2
19:19 49.3 °F 46.4 °F 30.1 in NW 0.9 mph 2 mph 90% 0 in 0 W/m2
19:24 49.3 °F 46.4 °F 30.1 in West 2 mph 3 mph 90% 0 in 0 W/m2
19:29 49.3 °F 46.4 °F 30.1 in West 0.9 mph 3 mph 90% 0 in 0 W/m2
19:34 49.3 °F 46.4 °F 30.1 in WNW 2 mph 3 mph 90% 0 in 0 W/m2
19:39 49.3 °F 46.4 °F 30.1 in West 0.9 mph 3 mph 90% 0 in 0 W/m2
19:44 49.3 °F 46.2 °F 30.1 in West 2 mph 3 mph 89% 0 in 0 W/m2
19:49 49.3 °F 46.2 °F 30.1 in WNW 2.9 mph 3 mph 89% 0 in 0 W/m2
19:54 49.3 °F 46.2 °F 30.1 in West 2.9 mph 4 mph 89% 0 in 0 W/m2
19:59 49.3 °F 46.2 °F 30.1 in West 0.9 mph 2 mph 89% 0 in 0 W/m2
20:04 49.3 °F 46.2 °F 30.1 in Calm   3 mph 89% 0 in 0 W/m2
20:09 49.3 °F 46.2 °F 30.1 in SW 0.9 mph 3 mph 89% 0 in 0 W/m2
20:14 49.3 °F 46.2 °F 30.1 in Calm   1 mph 89% 0 in 0 W/m2
20:19 49.3 °F 46.2 °F 30.1 in Calm   3 mph 89% 0 in 0 W/m2
20:24 49.3 °F 46.2 °F 30.1 in SW 2 mph 2 mph 89% 0 in 0 W/m2
20:29 49.3 °F 46.2 °F 30.1 in WNW 2 mph 4 mph 89% 0 in 0 W/m2
20:34 49.3 °F 46.2 °F 30.1 in West 2 mph 2 mph 89% 0 in 0 W/m2
20:39 49.5 °F 46.4 °F 30.1 in WNW 2.9 mph 4 mph 89% 0 in 0 W/m2
20:44 49.5 °F 46.4 °F 30.1 in Calm   2 mph 89% 0 in 0 W/m2
20:49 49.5 °F 46.4 °F 30.1 in NW 0.9 mph 4 mph 89% 0 in 0 W/m2
20:54 49.3 °F 46.2 °F 30.1 in West 0.9 mph 3 mph 89% 0 in 0 W/m2
20:59 49.3 °F 46.2 °F 30.1 in Calm   1 mph 89% 0 in 0 W/m2
21:04 49.1 °F 46 °F 30.1 in Calm   1 mph 89% 0 in 0 W/m2
21:09 48.9 °F 46 °F 30.1 in West 2 mph 3 mph 90% 0 in 0 W/m2
21:14 48.9 °F 46 °F 30.1 in Calm   2 mph 90% 0 in 0 W/m2
21:19 48.7 °F 45.9 °F 30.1 in West 2 mph 2 mph 90% 0 in 0 W/m2
21:24 48.7 °F 45.9 °F 30.1 in Calm   3 mph 90% 0 in 0 W/m2
21:29 48.6 °F 45.7 °F 30.1 in SE 2 mph 3 mph 90% 0 in 0 W/m2
21:34 48.4 °F 45.9 °F 30.1 in West 2 mph 4 mph 91% 0 in 0 W/m2
21:40 48.2 °F 45.7 °F 30.1 in Calm   2 mph 91% 0 in 0 W/m2
21:45 48 °F 45.5 °F 30.1 in Calm   4 mph 91% 0 in 0 W/m2
21:50 47.8 °F 45.3 °F 30.1 in Calm     91% 0 in 0 W/m2
21:55 47.7 °F 45.1 °F 30.1 in Calm   3 mph 91% 0 in 0 W/m2
22:00 47.7 °F 45.5 °F 30.1 in Calm     92% 0 in 0 W/m2
22:05 47.7 °F 45.5 °F 30.1 in Calm   1 mph 92% 0 in 0 W/m2
22:10 47.7 °F 45.5 °F 30.1 in Calm   1 mph 92% 0 in 0 W/m2
22:15 47.5 °F 45.3 °F 30 in Calm     92% 0 in 0 W/m2
22:20 47.5 °F 45.3 °F 30 in Calm   1 mph 92% 0 in 0 W/m2
22:25 47.5 °F 45.3 °F 30 in Calm     92% 0 in 0 W/m2
22:30 47.3 °F 45.1 °F 30 in WNW 0.9 mph 3 mph 92% 0 in 0 W/m2
22:35 47.3 °F 45.3 °F 30 in West 0.9 mph 2 mph 93% 0 in 0 W/m2
22:40 47.3 °F 45.3 °F 30 in West 2 mph 4 mph 93% 0 in 0 W/m2
22:45 47.1 °F 45.1 °F 30 in WNW 0.9 mph 2 mph 93% 0 in 0 W/m2
22:50 47.1 °F 45.1 °F 30 in NNW 0.9 mph 2 mph 93% 0 in 0 W/m2
22:55 47.3 °F 45.3 °F 30 in NNW 0.9 mph 2 mph 93% 0 in 0 W/m2
23:00 47.3 °F 45.3 °F 30 in NW 0.9 mph 2 mph 93% 0 in 0 W/m2
23:05 47.5 °F 45.5 °F 30 in WNW 0.9 mph 2 mph 93% 0 in 0 W/m2
23:10 47.5 °F 45.5 °F 30 in WNW 2 mph 3 mph 93% 0 in 0 W/m2
23:15 47.5 °F 45.5 °F 30 in Calm     93% 0 in 0 W/m2
23:20 47.3 °F 45.1 °F 30 in Calm   1 mph 92% 0 in 0 W/m2
23:25 47.1 °F 45 °F 30 in Calm   2 mph 92% 0 in 0 W/m2
23:30 47.1 °F 45.1 °F 30 in Calm   1 mph 93% 0 in 0 W/m2
23:35 47.1 °F 45 °F 30 in Calm   2 mph 92% 0 in 0 W/m2
23:40 46.9 °F 44.8 °F 30 in Calm   3 mph 92% 0 in 0 W/m2
23:45 46.9 °F 44.8 °F 30 in Calm   2 mph 92% 0 in 0 W/m2
23:50 46.9 °F 45 °F 30 in Calm   1 mph 93% 0 in 0 W/m2
23:55 46.8 °F 44.8 °F 30 in Calm     93% 0 in 0 W/m2
Juneau County Weather
Compliments of Weather Underground - 4 mb